Time;durP1;ratioP1;P1;durP2;ratioP2;P2;SDS_P1;SDS_P2;PMS_P1;PMS_P2;Temp;Humidity;BMP_temperature;BMP_pressure;BME280_temperature;BME280_humidity;BME280_pressure;Samples;Min_cycle;Max_cycle;Signal;HPM_P1;HPM_P2
2022/07/30 00:00:35;;;;;;;20.00;12.18;;;640.70;2432.00;;;;;;6276634;22;20109;-83
2022/07/30 00:03:01;;;;;;;13.50;11.60;;;640.70;2432.00;;;;;;6275628;22;20026;-80
2022/07/30 00:05:27;;;;;;;14.75;12.13;;;640.70;2432.00;;;;;;6277196;22;19996;-83
2022/07/30 00:07:53;;;;;;;16.15;12.13;;;640.80;2432.00;;;;;;6277345;22;20006;-82
2022/07/30 00:10:19;;;;;;;15.25;12.45;;;640.70;2432.00;;;;;;6278058;22;20410;-82
2022/07/30 00:12:45;;;;;;;14.88;12.15;;;640.60;2432.00;;;;;;6279144;22;20401;-81
2022/07/30 00:15:11;;;;;;;14.32;12.15;;;640.50;2432.00;;;;;;6277935;22;20023;-82
2022/07/30 00:17:37;;;;;;;13.50;11.93;;;640.30;2432.00;;;;;;6276573;22;20007;-82
2022/07/30 00:20:04;;;;;;;14.40;12.30;;;640.40;2432.00;;;;;;6276871;22;20004;-82
2022/07/30 00:22:30;;;;;;;15.25;12.25;;;640.40;2432.00;;;;;;6276637;22;20010;-81
2022/07/30 00:24:56;;;;;;;15.25;12.57;;;640.40;2432.00;;;;;;6276513;22;20049;-82
2022/07/30 00:27:22;;;;;;;15.98;12.77;;;640.40;2432.00;;;;;;6276811;22;19996;-82
2022/07/30 00:29:49;;;;;;;13.43;12.02;;;640.50;2432.00;;;;;;6277943;22;20039;-82
2022/07/30 00:32:15;;;;;;;17.95;11.93;;;640.10;2432.00;;;;;;6276721;22;20083;-83
2022/07/30 00:34:41;;;;;;;13.90;11.85;;;640.20;2432.00;;;;;;6276706;22;20023;-83
2022/07/30 00:37:06;;;;;;;14.55;11.38;;;640.20;2432.00;;;;;;6276253;22;19995;-83
2022/07/30 00:39:32;;;;;;;13.50;11.45;;;640.30;2432.00;;;;;;6276610;22;20000;-83
2022/07/30 00:42:01;;;;;;;20.67;12.65;;;640.20;2432.00;;;;;;6276680;22;20004;-82
2022/07/30 00:44:28;;;;;;;15.02;11.30;;;640.20;2432.00;;;;;;6276358;22;20401;-84
2022/07/30 00:46:54;;;;;;;14.57;11.75;;;640.10;2432.00;;;;;;6278103;22;19996;-83
2022/07/30 00:49:20;;;;;;;13.95;11.68;;;640.10;2432.00;;;;;;6276522;22;20420;-82
2022/07/30 00:51:46;;;;;;;13.82;12.00;;;640.10;2432.00;;;;;;6276231;22;19992;-83
2022/07/30 00:54:14;;;;;;;13.32;12.00;;;640.00;2432.00;;;;;;6276435;22;19999;-82
2022/07/30 00:56:40;;;;;;;12.85;11.55;;;640.00;2432.00;;;;;;6276405;22;20019;-83
2022/07/30 00:59:06;;;;;;;17.00;12.77;;;640.10;2432.00;;;;;;6276038;22;20091;-83
2022/07/30 01:01:33;;;;;;;14.70;12.10;;;615.20;2432.00;;;;;;6275951;22;20027;-82
2022/07/30 01:03:59;;;;;;;17.73;12.85;;;615.20;2432.00;;;;;;6276324;22;20052;-83
2022/07/30 01:06:25;;;;;;;13.65;12.02;;;615.20;2432.00;;;;;;6276115;22;20086;-81
2022/07/30 01:08:51;;;;;;;16.95;12.93;;;640.20;2432.00;;;;;;6276351;22;20007;-82
2022/07/30 01:11:17;;;;;;;16.83;11.98;;;615.20;2432.00;;;;;;6276368;22;20003;-83
2022/07/30 01:13:44;;;;;;;17.17;12.68;;;615.10;2432.00;;;;;;6276093;22;20053;-83
2022/07/30 01:16:10;;;;;;;14.70;13.18;;;615.20;2432.00;;;;;;6276277;22;20053;-83
2022/07/30 01:21:31;;;;;;;20.88;13.23;;;615.10;2432.00;;;;;;6277774;22;20095;-82
2022/07/30 01:24:04;;;;;;;14.95;13.15;;;615.00;2432.00;;;;;;6276463;22;19999;-82
2022/07/30 01:26:32;;;;;;;18.15;12.13;;;614.90;2432.00;;;;;;6276122;22;20053;-83
2022/07/30 01:29:00;;;;;;;16.08;12.30;;;614.80;2432.00;;;;;;6276151;22;20308;-83
2022/07/30 01:31:27;;;;;;;25.08;16.33;;;614.90;2432.00;;;;;;6276184;22;20053;-81
2022/07/30 01:33:55;;;;;;;18.48;15.40;;;614.70;2432.00;;;;;;6275838;22;20003;-83
2022/07/30 01:36:23;;;;;;;15.98;13.57;;;614.50;2432.00;;;;;;6276404;22;20023;-83
2022/07/30 01:38:50;;;;;;;15.90;11.85;;;615.00;2432.00;;;;;;6276055;22;20047;-82
2022/07/30 01:41:18;;;;;;;16.75;12.27;;;614.70;2432.00;;;;;;6275848;22;20034;-84
2022/07/30 01:43:45;;;;;;;16.83;13.13;;;614.80;2432.00;;;;;;6276188;22;19999;-83
2022/07/30 01:46:13;;;;;;;15.80;12.55;;;614.60;2432.00;;;;;;6275848;22;19996;-83
2022/07/30 01:48:41;;;;;;;15.02;12.32;;;614.60;2432.00;;;;;;6275688;22;19996;-83
2022/07/30 01:51:10;;;;;;;15.63;13.27;;;614.60;2432.00;;;;;;6276049;22;19995;-84
2022/07/30 01:53:38;;;;;;;15.10;12.65;;;614.60;2432.00;;;;;;6281921;22;19991;-83
2022/07/30 01:56:06;;;;;;;16.83;12.75;;;614.70;2432.00;;;;;;6304411;22;19984;-83
2022/07/30 01:58:36;;;;;;;15.20;12.45;;;614.70;2432.00;;;;;;6287602;22;20086;-82
2022/07/30 02:01:03;;;;;;;15.30;12.32;;;614.60;2432.00;;;;;;6279630;22;20008;-83
2022/07/30 02:03:29;;;;;;;13.70;11.95;;;614.50;2432.00;;;;;;6282417;22;20052;-84
2022/07/30 02:06:00;;;;;;;17.65;13.15;;;614.40;2432.00;;;;;;6279032;22;20045;-84
2022/07/30 02:08:34;;;;;;;14.00;12.50;;;589.50;2432.00;;;;;;6275669;22;20051;-83
2022/07/30 02:11:07;;;;;;;16.95;12.98;;;589.70;2432.00;;;;;;6276123;22;20018;-83
2022/07/30 02:13:44;;;;;;;15.70;11.98;;;589.70;2432.00;;;;;;6276005;22;19992;-82
2022/07/30 02:16:23;;;;;;;13.95;12.57;;;614.50;2432.00;;;;;;6275439;22;19995;-82
2022/07/30 02:19:10;;;;;;;18.55;13.23;;;614.50;2432.00;;;;;;6277381;22;20035;-83
2022/07/30 02:21:43;;;;;;;13.77;12.30;;;614.50;2432.00;;;;;;6275455;22;20456;-83
2022/07/30 02:24:12;;;;;;;15.02;13.00;;;614.60;2432.00;;;;;;6275762;22;19995;-83
2022/07/30 02:26:41;;;;;;;15.13;12.70;;;614.60;2432.00;;;;;;6275702;22;20409;-82
2022/07/30 02:29:09;;;;;;;13.38;11.98;;;614.50;2432.00;;;;;;6275473;22;20083;-84
2022/07/30 02:31:37;;;;;;;14.23;12.65;;;614.50;2432.00;;;;;;6275688;22;20002;-83
2022/07/30 02:34:05;;;;;;;12.50;11.20;;;614.60;2432.00;;;;;;6275283;22;19996;-83
2022/07/30 02:36:32;;;;;;;14.32;12.20;;;614.50;2432.00;;;;;;6275494;22;20424;-83
2022/07/30 02:39:00;;;;;;;14.13;12.07;;;589.50;2432.00;;;;;;6275684;22;20082;-82
2022/07/30 02:41:28;;;;;;;15.82;12.10;;;614.40;2432.00;;;;;;6275634;22;20003;-83
2022/07/30 02:43:54;;;;;;;16.48;12.32;;;614.50;2432.00;;;;;;6275283;22;20005;-83
2022/07/30 02:46:23;;;;;;;15.23;12.40;;;614.50;2432.00;;;;;;6275511;22;19996;-84
2022/07/30 02:48:50;;;;;;;13.07;11.77;;;614.40;2432.00;;;;;;6275760;22;20004;-85
2022/07/30 02:51:18;;;;;;;16.50;13.82;;;614.40;2432.00;;;;;;6275315;22;19999;-83
2022/07/30 02:53:47;;;;;;;15.43;13.10;;;614.40;2432.00;;;;;;6275785;22;20075;-82
2022/07/30 02:56:17;;;;;;;13.63;12.23;;;589.70;2432.00;;;;;;6275683;22;20302;-83
2022/07/30 02:58:45;;;;;;;16.52;14.25;;;589.60;2432.00;;;;;;6276645;22;20413;-83
2022/07/30 03:01:14;;;;;;;22.13;14.13;;;589.70;2432.00;;;;;;6277199;22;20007;-83
2022/07/30 03:03:43;;;;;;;19.55;13.25;;;589.40;2432.00;;;;;;6277221;22;20002;-82
2022/07/30 03:06:12;;;;;;;17.90;13.32;;;589.50;2432.00;;;;;;6277502;22;19992;-82
2022/07/30 03:08:40;;;;;;;15.63;13.40;;;589.60;2432.00;;;;;;6277422;22;20005;-83
2022/07/30 03:11:09;;;;;;;17.50;12.93;;;589.70;2432.00;;;;;;6277268;22;20417;-82
2022/07/30 03:13:35;;;;;;;15.57;12.70;;;589.60;2432.00;;;;;;6277446;22;20002;-82
2022/07/30 03:16:03;;;;;;;18.35;12.63;;;589.50;2432.00;;;;;;6277482;22;19996;-83
2022/07/30 03:18:33;;;;;;;19.05;13.07;;;589.30;2432.00;;;;;;6278608;22;19988;-83
2022/07/30 03:21:00;;;;;;;19.50;13.68;;;589.30;2432.00;;;;;;6278543;22;20409;-83
2022/07/30 03:23:26;;;;;;;18.92;14.43;;;588.90;2432.00;;;;;;6277255;22;20528;-82
2022/07/30 03:26:01;;;;;;;14.68;12.73;;;589.00;2432.00;;;;;;6276985;22;20073;-84
2022/07/30 03:28:33;;;;;;;18.52;13.18;;;589.10;2432.00;;;;;;6277327;22;19996;-82
2022/07/30 03:30:59;;;;;;;16.13;12.55;;;589.20;2432.00;;;;;;6277551;22;20532;-82
2022/07/30 03:33:27;;;;;;;16.77;12.50;;;589.00;2432.00;;;;;;6277228;22;20000;-82
2022/07/30 03:35:54;;;;;;;15.80;12.73;;;589.20;2432.00;;;;;;6277339;22;19996;-82
2022/07/30 03:38:21;;;;;;;17.23;12.25;;;589.10;2432.00;;;;;;6277267;22;19996;-82
2022/07/30 03:40:47;;;;;;;15.77;12.90;;;589.20;2432.00;;;;;;6278447;22;20014;-83
2022/07/30 03:43:14;;;;;;;15.65;13.02;;;589.20;2432.00;;;;;;6277392;22;20401;-83
2022/07/30 03:45:43;;;;;;;16.83;13.75;;;615.00;2432.00;;;;;;6276976;22;20354;-82
2022/07/30 03:48:11;;;;;;;18.85;13.10;;;588.80;2432.00;;;;;;6277312;22;20082;-82
2022/07/30 03:50:39;;;;;;;14.02;12.52;;;589.00;2432.00;;;;;;6277002;22;19996;-82
2022/07/30 03:53:07;;;;;;;17.55;12.80;;;589.20;2432.00;;;;;;6277016;22;20022;-82
2022/07/30 03:55:34;;;;;;;16.48;13.00;;;589.20;2432.00;;;;;;6276979;22;19996;-82
2022/07/30 03:58:00;;;;;;;14.43;12.07;;;589.20;2432.00;;;;;;6277342;22;20054;-83
2022/07/30 04:00:27;;;;;;;15.60;12.73;;;589.50;2432.00;;;;;;6276263;22;20100;-82
2022/07/30 04:02:53;;;;;;;15.43;12.93;;;589.20;2432.00;;;;;;6277068;22;19991;-83
2022/07/30 04:05:19;;;;;;;13.60;12.20;;;589.20;2432.00;;;;;;6277070;22;20007;-82
2022/07/30 04:07:45;;;;;;;16.13;12.35;;;589.20;2432.00;;;;;;6277203;22;19992;-83
2022/07/30 04:10:12;;;;;;;17.23;12.32;;;589.10;2432.00;;;;;;6277399;22;20010;-83
2022/07/30 04:12:38;;;;;;;13.90;11.43;;;589.10;2432.00;;;;;;6277182;22;19992;-82
2022/07/30 04:15:05;;;;;;;14.75;12.43;;;589.20;2432.00;;;;;;6276915;22;20000;-82
2022/07/30 04:17:50;;;;;;;15.75;14.15;;;589.20;2432.00;;;;;;6277152;22;19995;-83
2022/07/30 04:20:31;;;;;;;16.38;13.77;;;564.10;2432.00;;;;;;6278387;22;20053;-82
2022/07/30 04:22:58;;;;;;;15.75;12.35;;;564.10;2432.00;;;;;;6279749;22;19999;-82
2022/07/30 04:25:25;;;;;;;14.05;11.98;;;588.80;2432.00;;;;;;6278544;22;20046;-82
2022/07/30 04:27:51;;;;;;;13.32;11.75;;;589.00;2432.00;;;;;;6276497;22;20039;-83
2022/07/30 04:30:17;;;;;;;19.35;12.75;;;589.10;2432.00;;;;;;6276798;22;20026;-84
2022/07/30 04:32:43;;;;;;;18.95;14.00;;;589.10;2432.00;;;;;;6276781;22;20465;-84
2022/07/30 04:35:09;;;;;;;18.00;12.90;;;589.00;2432.00;;;;;;6277585;22;20398;-82
2022/07/30 04:37:35;;;;;;;14.90;12.20;;;589.30;2432.00;;;;;;6276732;22;20125;-83
2022/07/30 04:40:01;;;;;;;16.17;13.60;;;589.00;2432.00;;;;;;6276601;22;20393;-82
2022/07/30 04:42:28;;;;;;;15.63;13.18;;;588.80;2432.00;;;;;;6276227;22;20011;-82
2022/07/30 04:44:54;;;;;;;16.48;13.20;;;588.80;2432.00;;;;;;6276505;22;20397;-82
2022/07/30 04:47:21;;;;;;;20.33;15.57;;;564.00;2432.00;;;;;;6276759;22;20057;-81
2022/07/30 04:49:48;;;;;;;19.00;14.85;;;588.80;2432.00;;;;;;6276282;22;20000;-82
2022/07/30 04:52:17;;;;;;;16.05;12.85;;;588.90;2432.00;;;;;;6276523;22;19996;-82
2022/07/30 04:54:53;;;;;;;15.27;13.27;;;589.10;2432.00;;;;;;6276509;22;20018;-83
2022/07/30 04:57:20;;;;;;;18.00;14.27;;;589.00;2432.00;;;;;;6276318;22;20428;-82
2022/07/30 04:59:46;;;;;;;16.48;13.35;;;589.20;2432.00;;;;;;6276278;22;20049;-82
2022/07/30 05:02:14;;;;;;;18.73;13.13;;;589.40;2432.00;;;;;;6277501;22;20004;-83
2022/07/30 05:04:41;;;;;;;18.35;14.00;;;589.40;2432.00;;;;;;6276639;22;20018;-83
2022/07/30 05:07:10;;;;;;;16.40;13.68;;;589.40;2432.00;;;;;;6276393;22;19992;-83
2022/07/30 05:09:36;;;;;;;17.27;13.02;;;589.50;2432.00;;;;;;6276208;22;20035;-82
2022/07/30 05:12:02;;;;;;;16.67;13.18;;;589.60;2432.00;;;;;;6276146;22;20004;-82
2022/07/30 05:14:28;;;;;;;14.63;12.57;;;589.60;2432.00;;;;;;6276784;22;20003;-82
2022/07/30 05:16:54;;;;;;;18.00;13.07;;;614.40;2432.00;;;;;;6275966;22;19991;-83
2022/07/30 05:19:21;;;;;;;19.08;13.80;;;614.80;2432.00;;;;;;6276378;22;20000;-85
2022/07/30 05:21:47;;;;;;;17.63;13.55;;;614.70;2432.00;;;;;;6275720;22;20028;-81
2022/07/30 05:24:13;;;;;;;20.67;16.70;;;614.50;2432.00;;;;;;6275775;22;20443;-82
2022/07/30 05:26:39;;;;;;;18.23;14.35;;;614.50;2432.00;;;;;;6276201;22;19996;-86
2022/07/30 05:29:05;;;;;;;17.23;14.18;;;614.60;2432.00;;;;;;6276784;22;20416;-85
2022/07/30 05:31:31;;;;;;;17.63;12.88;;;614.60;2432.00;;;;;;6276571;22;20090;-86
2022/07/30 05:33:57;;;;;;;19.92;13.60;;;614.70;2432.00;;;;;;6276241;22;20079;-86
2022/07/30 05:36:23;;;;;;;14.90;12.35;;;614.70;2432.00;;;;;;6277010;22;20018;-85
2022/07/30 05:38:49;;;;;;;16.85;12.95;;;614.70;2432.00;;;;;;6276776;22;20410;-86
2022/07/30 05:41:15;;;;;;;16.75;12.35;;;614.60;2432.00;;;;;;6276918;22;20003;-85
2022/07/30 05:43:41;;;;;;;19.25;14.10;;;614.70;2432.00;;;;;;6276866;22;19995;-87
2022/07/30 05:46:07;;;;;;;19.73;13.38;;;614.60;2432.00;;;;;;6276489;22;20006;-85
2022/07/30 05:48:35;;;;;;;16.70;12.85;;;614.70;2432.00;;;;;;6276731;22;20023;-88
2022/07/30 05:51:01;;;;;;;16.17;13.32;;;614.80;2432.00;;;;;;6276548;22;20071;-86
2022/07/30 05:53:28;;;;;;;18.50;12.35;;;614.70;2432.00;;;;;;6276408;22;19995;-89
2022/07/30 05:55:54;;;;;;;19.48;13.00;;;589.60;2432.00;;;;;;6276646;22;20014;-84
2022/07/30 05:58:20;;;;;;;14.00;12.50;;;614.70;2432.00;;;;;;6276173;22;20000;-85
2022/07/30 06:00:46;;;;;;;15.52;12.75;;;614.80;2432.00;;;;;;6275337;22;20019;-88
2022/07/30 06:03:12;;;;;;;15.63;13.85;;;614.80;2432.00;;;;;;6276640;22;19991;-87
2022/07/30 06:05:38;;;;;;;15.88;12.80;;;615.00;2432.00;;;;;;6276345;22;19999;-88
2022/07/30 06:08:04;;;;;;;14.82;13.23;;;615.20;2432.00;;;;;;6276440;22;19999;-86
2022/07/30 06:10:30;;;;;;;17.60;14.05;;;615.30;2432.00;;;;;;6276215;22;20000;-87
2022/07/30 06:12:56;;;;;;;19.80;14.38;;;640.00;2432.00;;;;;;6276242;22;20003;-86
2022/07/30 06:15:22;;;;;;;18.50;14.40;;;640.00;2432.00;;;;;;6276605;22;20000;-85
2022/07/30 06:17:48;;;;;;;22.85;15.90;;;640.00;2432.00;;;;;;6276518;22;20054;-86
2022/07/30 06:20:15;;;;;;;18.33;15.02;;;640.20;2432.00;;;;;;6276418;22;20007;-86
2022/07/30 06:22:41;;;;;;;17.60;13.80;;;640.20;2432.00;;;;;;6276752;22;20455;-86
2022/07/30 06:25:08;;;;;;;16.48;14.00;;;640.50;2432.00;;;;;;6276588;22;20000;-87
2022/07/30 06:27:35;;;;;;;19.88;14.85;;;640.50;2432.00;;;;;;6276148;22;20381;-86
2022/07/30 06:30:06;;;;;;;19.67;15.07;;;640.60;2432.00;;;;;;6276495;22;20004;-86
2022/07/30 06:32:32;;;;;;;14.80;12.85;;;640.70;2432.00;;;;;;6277907;22;20421;-87
2022/07/30 06:34:58;;;;;;;15.00;12.85;;;640.90;2432.00;;;;;;6279347;22;20010;-85
2022/07/30 06:37:24;;;;;;;17.95;11.57;;;665.70;2432.00;;;;;;6278594;22;20305;-86
2022/07/30 06:39:49;;;;;;;18.05;12.25;;;666.00;2432.00;;;;;;6278447;22;20003;-85
2022/07/30 06:42:15;;;;;;;21.30;11.70;;;666.00;2432.00;;;;;;6278231;22;20437;-85
2022/07/30 06:44:41;;;;;;;12.45;11.15;;;666.20;2432.00;;;;;;6295495;22;20006;-84
2022/07/30 06:47:07;;;;;;;18.60;11.75;;;666.20;2432.00;;;;;;6301718;22;20000;-82
2022/07/30 06:49:35;;;;;;;16.27;11.60;;;666.50;2432.00;;;;;;6288189;22;20003;-82
2022/07/30 06:52:02;;;;;;;14.68;11.88;;;691.20;2432.00;;;;;;6295422;22;20006;-83
2022/07/30 06:54:28;;;;;;;16.27;10.80;;;666.50;2432.00;;;;;;6297777;22;20003;-83
2022/07/30 06:56:54;;;;;;;11.32;10.23;;;666.50;2432.00;;;;;;6288760;22;20068;-84
2022/07/30 06:59:19;;;;;;;11.63;10.27;;;691.30;2432.00;;;;;;6278538;22;20061;-85
2022/07/30 07:01:45;;;;;;;13.35;11.32;;;691.40;2432.00;;;;;;6277825;22;20004;-84
2022/07/30 07:04:12;;;;;;;16.55;10.82;;;691.60;2432.00;;;;;;6277981;22;20006;-86
2022/07/30 07:06:38;;;;;;;13.45;11.38;;;691.60;2432.00;;;;;;6278174;22;20099;-86
2022/07/30 07:09:05;;;;;;;17.20;10.93;;;691.60;2432.00;;;;;;6278117;22;20003;-85
2022/07/30 07:11:30;;;;;;;15.02;11.43;;;691.80;2432.00;;;;;;6278807;22;20007;-84
2022/07/30 07:13:56;;;;;;;26.20;11.98;;;692.00;2432.00;;;;;;6278582;22;20003;-83
2022/07/30 07:16:25;;;;;;;12.05;10.77;;;716.80;2432.00;;;;;;6277775;22;20026;-84
2022/07/30 07:18:52;;;;;;;14.75;11.43;;;716.90;2432.00;;;;;;6277673;22;20080;-82
2022/07/30 07:21:18;;;;;;;15.15;11.18;;;717.10;2432.00;;;;;;6277762;22;19999;-83
2022/07/30 07:23:44;;;;;;;16.55;11.75;;;717.20;2432.00;;;;;;6277228;22;20007;-83
2022/07/30 07:26:11;;;;;;;13.70;11.15;;;717.40;2432.00;;;;;;6277574;22;19996;-82
2022/07/30 07:28:38;;;;;;;14.60;11.35;;;717.50;2432.00;;;;;;6277396;22;20003;-82
2022/07/30 07:31:05;;;;;;;15.45;10.60;;;717.70;2432.00;;;;;;6277211;22;19996;-83
2022/07/30 07:33:31;;;;;;;14.93;12.90;;;717.70;2432.00;;;;;;6277863;22;20000;-83
2022/07/30 07:35:56;;;;;;;12.15;10.95;;;742.50;2432.00;;;;;;6277369;22;20424;-81
2022/07/30 07:38:22;;;;;;;13.82;10.85;;;742.60;2432.00;;;;;;6277244;22;20000;-82
2022/07/30 07:40:48;;;;;;;15.23;13.10;;;742.60;2432.00;;;;;;6277527;22;20007;-83
2022/07/30 07:43:14;;;;;;;20.08;11.30;;;742.80;2432.00;;;;;;6276806;22;19995;-84
2022/07/30 07:45:44;;;;;;;17.17;12.55;;;743.00;2432.00;;;;;;6277387;22;20007;-84
2022/07/30 07:48:11;;;;;;;14.80;10.52;;;743.10;2432.00;;;;;;6277528;22;20134;-85
2022/07/30 07:50:37;;;;;;;13.13;11.82;;;743.30;2432.00;;;;;;6277391;22;20005;-85
2022/07/30 07:53:03;;;;;;;13.20;10.90;;;743.30;2432.00;;;;;;6277614;22;20020;-82
2022/07/30 07:55:29;;;;;;;11.43;10.23;;;768.10;2432.00;;;;;;6280644;22;19995;-84
2022/07/30 07:57:55;;;;;;;12.50;10.80;;;768.20;2432.00;;;;;;6279268;22;20045;-84
2022/07/30 08:00:21;;;;;;;11.57;10.32;;;768.40;2432.00;;;;;;6276709;22;20094;-84
2022/07/30 08:02:47;;;;;;;16.73;11.90;;;768.60;2432.00;;;;;;6279104;22;19988;-82
2022/07/30 08:05:15;;;;;;;13.85;12.35;;;768.80;2432.00;;;;;;6275797;22;20425;-84
2022/07/30 08:07:42;;;;;;;10.13;9.13;;;768.90;2406.40;;;;;;6276799;22;20469;-85
2022/07/30 08:10:08;;;;;;;9.98;8.73;;;768.90;2380.80;;;;;;6276698;22;19996;-84
2022/07/30 08:12:34;;;;;;;10.45;9.07;;;768.50;2329.60;;;;;;6276691;22;20278;-83
2022/07/30 08:15:00;;;;;;;14.20;10.55;;;793.70;2355.20;;;;;;6276985;22;19996;-86
2022/07/30 08:17:26;;;;;;;9.98;8.95;;;793.80;2406.40;;;;;;6278305;22;20000;-84
2022/07/30 08:19:52;;;;;;;9.27;8.35;;;794.00;2329.60;;;;;;6276614;22;20032;-83
2022/07/30 08:22:18;;;;;;;11.40;10.20;;;794.00;2329.60;;;;;;6276597;22;20023;-82
2022/07/30 08:24:44;;;;;;;13.88;12.45;;;794.10;2329.60;;;;;;6277070;22;20007;-84
2022/07/30 08:27:09;;;;;;;12.13;9.35;;;794.30;2329.60;;;;;;6276621;22;20007;-87
2022/07/30 08:29:35;;;;;;;10.77;8.65;;;794.40;2304.00;;;;;;6276726;22;20003;-85
2022/07/30 08:32:01;;;;;;;10.57;8.77;;;794.50;2278.40;;;;;;6276712;22;19991;-86
2022/07/30 08:34:28;;;;;;;10.13;8.20;;;819.20;2252.80;;;;;;6277507;22;20073;-86
2022/07/30 08:36:54;;;;;;;9.70;8.70;;;819.30;2252.80;;;;;;6277669;22;20003;-88
2022/07/30 08:39:20;;;;;;;13.65;8.80;;;819.60;2227.20;;;;;;6277060;22;19999;-87
2022/07/30 08:41:48;;;;;;;14.05;9.27;;;819.60;2227.20;;;;;;6277572;22;20018;-86
2022/07/30 08:44:17;;;;;;;10.18;8.82;;;819.60;2227.20;;;;;;6277970;22;20027;-84
2022/07/30 08:46:46;;;;;;;9.75;8.75;;;819.90;2201.60;;;;;;6278298;22;20000;-84
2022/07/30 08:49:13;;;;;;;11.00;8.63;;;844.90;2150.40;;;;;;6277675;22;20291;-86
2022/07/30 08:51:39;;;;;;;9.55;8.55;;;844.80;2176.00;;;;;;6277294;22;20003;-86
2022/07/30 08:54:05;;;;;;;10.18;9.18;;;820.10;2099.20;;;;;;6276432;22;19999;-84
2022/07/30 08:56:32;;;;;;;12.48;9.23;;;820.10;2124.80;;;;;;6276835;22;19995;-86
2022/07/30 08:59:02;;;;;;;12.63;8.20;;;844.90;2124.80;;;;;;6277297;22;20086;-85
2022/07/30 09:01:28;;;;;;;11.35;9.05;;;844.90;2124.80;;;;;;6276732;22;20007;-84
2022/07/30 09:03:54;;;;;;;12.07;9.77;;;845.20;2099.20;;;;;;6276648;22;19996;-84
2022/07/30 09:06:20;;;;;;;10.23;9.02;;;845.40;2099.20;;;;;;6276980;22;20405;-86
2022/07/30 09:08:45;;;;;;;9.73;8.73;;;845.60;2099.20;;;;;;6277064;22;20022;-86
2022/07/30 09:11:11;;;;;;;8.88;7.95;;;845.70;2048.00;;;;;;6277186;22;20006;-85
2022/07/30 09:13:43;;;;;;;12.25;9.00;;;870.40;2048.00;;;;;;6276943;22;19996;-84
2022/07/30 09:16:21;;;;;;;10.90;9.32;;;870.50;2048.00;;;;;;6276774;22;20476;-84
2022/07/30 09:18:48;;;;;;;12.90;8.43;;;870.60;2022.40;;;;;;6276643;22;20003;-84
2022/07/30 09:21:23;;;;;;;11.65;8.25;;;896.70;2022.40;;;;;;6277318;22;19996;-83
2022/07/30 09:24:04;;;;;;;12.05;8.75;;;870.90;1996.80;;;;;;6278593;22;20010;-85
2022/07/30 09:26:34;;;;;;;15.00;9.05;;;870.90;1996.80;;;;;;6281604;22;19996;-85
2022/07/30 09:29:16;;;;;;;13.20;10.00;;;;;;;;;;6275507;22;20004;-86
2022/07/30 09:31:59;;;;;;;16.83;11.30;;;896.10;1945.60;;;;;;6276854;22;20000;-85
2022/07/30 09:34:28;;;;;;;12.93;11.52;;;896.30;1920.00;;;;;;6277453;22;20008;-85
2022/07/30 09:36:59;;;;;;;11.27;9.82;;;896.10;1920.00;;;;;;6276609;22;20138;-83
2022/07/30 09:39:53;;;;;;;10.75;8.65;;;896.20;1920.00;;;;;;6276569;22;20029;-86
2022/07/30 09:42:30;;;;;;;14.73;11.30;;;871.30;1920.00;;;;;;6276167;22;20074;-85
2022/07/30 09:45:13;;;;;;;12.68;8.93;;;896.40;1920.00;;;;;;6277097;22;20003;-86
2022/07/30 09:47:44;;;;;;;10.68;9.57;;;896.60;1894.40;;;;;;6276435;22;20020;-84
2022/07/30 09:50:57;;;;;;;11.90;10.63;;;896.90;1894.40;;;;;;6276412;22;20083;-85
2022/07/30 09:53:58;;;;;;;12.25;9.10;;;896.90;1868.80;;;;;;6221976;22;20004;-89
2022/07/30 09:57:47;;;;;;;10.87;8.73;;;921.60;1868.80;;;;;;6275106;22;20011;-84
2022/07/30 10:00:23;;;;;;;10.25;9.10;;;921.70;1868.80;;;;;;6267951;22;20305;-85
2022/07/30 10:02:50;;;;;;;11.13;9.65;;;921.90;1868.80;;;;;;6276712;22;20004;-83
2022/07/30 10:05:20;;;;;;;10.95;8.77;;;922.00;1843.20;;;;;;6276226;22;19996;-85
2022/07/30 10:07:53;;;;;;;10.45;8.15;;;922.30;1843.20;;;;;;6276450;22;20004;-84
2022/07/30 10:10:28;;;;;;;10.18;8.55;;;922.30;1817.60;;;;;;6276626;22;20321;-86
2022/07/30 10:13:00;;;;;;;9.98;8.98;;;922.40;1817.60;;;;;;6276398;22;20000;-88
2022/07/30 10:15:31;;;;;;;20.13;8.65;;;947.30;1792.00;;;;;;6276280;22;20053;-85
2022/07/30 10:17:57;;;;;;;;;;;947.40;1792.00;;;;;;6276350;22;20000;-86
2022/07/30 10:20:24;;;;;;;9.73;8.73;;;947.40;1766.40;;;;;;6275994;22;19934;-86
2022/07/30 10:22:51;;;;;;;11.05;8.90;;;947.50;1766.40;;;;;;6275543;22;20368;-85
2022/07/30 10:25:22;;;;;;;10.25;9.02;;;947.70;1740.80;;;;;;6275131;22;20000;-85
2022/07/30 10:27:49;;;;;;;12.50;10.25;;;947.80;1740.80;;;;;;6275695;22;20000;-84
2022/07/30 10:30:16;;;;;;;12.40;9.05;;;947.90;1715.20;;;;;;6275950;22;20003;-85
2022/07/30 10:32:43;;;;;;;14.80;8.77;;;947.60;1715.20;;;;;;6275848;22;20031;-85
2022/07/30 10:35:12;;;;;;;11.73;9.10;;;947.30;1715.20;;;;;;6276183;22;20000;-85
2022/07/30 10:37:42;;;;;;;11.75;9.13;;;947.20;1715.20;;;;;;6275927;22;19995;-85
2022/07/30 10:40:32;;;;;;;10.70;9.40;;;922.50;1740.80;;;;;;6275444;22;20011;-84
2022/07/30 10:43:35;;;;;;;10.35;9.30;;;922.10;1740.80;;;;;;6275857;22;20236;-81
2022/07/30 10:46:10;;;;;;;10.40;8.80;;;921.70;1792.00;;;;;;6275505;22;20049;-83
2022/07/30 10:48:37;;;;;;;13.27;8.73;;;896.70;1792.00;;;;;;6275831;22;19999;-82
2022/07/30 10:51:03;;;;;;;12.02;7.97;;;896.40;1766.40;;;;;;6275684;22;20000;-82
2022/07/30 10:53:41;;;;;;;14.00;8.32;;;896.20;1766.40;;;;;;6275434;22;20446;-82
2022/07/30 10:56:18;;;;;;;13.25;8.93;;;871.30;1792.00;;;;;;6275622;22;20391;-82
2022/07/30 10:58:59;;;;;;;12.18;8.43;;;871.10;1792.00;;;;;;6275181;22;19992;-82
2022/07/30 11:01:45;;;;;;;13.93;9.20;;;871.00;1792.00;;;;;;6274780;22;20039;-81
2022/07/30 11:04:19;;;;;;;18.20;11.38;;;870.90;1868.80;;;;;;6275514;22;19999;-83
2022/07/30 11:06:46;;;;;;;40.95;14.23;;;870.70;2022.40;;;;;;6276128;22;20079;-84
2022/07/30 11:09:30;;;;;;;29.17;13.98;;;;;;;;;;6276449;22;20026;-84
2022/07/30 11:11:59;;;;;;;20.40;12.00;;;845.10;2380.80;;;;;;6276324;22;19999;-86
2022/07/30 11:14:45;;;;;;;23.88;14.95;;;820.00;2432.00;;;;;;6292338;22;19994;-83
2022/07/30 11:18:01;;;;;;;18.20;13.45;;;819.20;2432.00;;;;;;6297616;22;20019;-84
2022/07/30 11:20:39;;;;;;;12.43;9.63;;;794.00;2432.00;;;;;;6143131;23;20006;-85
2022/07/30 11:23:27;;;;;;;11.40;8.05;;;793.60;2432.00;;;;;;6283960;22;20444;-86
2022/07/30 11:42:12;;;;;;;12.77;11.07;;;742.90;2432.00;;;;;;5141024;27;20401;-83
2022/07/30 11:44:45;;;;;;;17.38;12.02;;;691.20;2432.00;;;;;;5129729;28;20100;-84
2022/07/30 11:47:11;;;;;;;22.30;12.85;;;666.40;2432.00;;;;;;5112776;28;20027;-83
2022/07/30 11:49:37;;;;;;;19.88;12.68;;;666.00;2432.00;;;;;;5112685;28;20039;-84
2022/07/30 11:52:03;;;;;;;15.48;11.38;;;665.70;2432.00;;;;;;5112725;28;20031;-85
2022/07/30 11:54:35;;;;;;;12.68;10.57;;;665.70;2432.00;;;;;;5113026;28;20496;-84
2022/07/30 11:57:16;;;;;;;12.15;10.85;;;665.80;2432.00;;;;;;5112749;28;20511;-83
2022/07/30 11:59:55;;;;;;;19.52;12.40;;;665.70;2432.00;;;;;;5108425;28;20152;-83
2022/07/30 12:02:27;;;;;;;32.63;19.02;;;640.80;2432.00;;;;;;5112618;28;20383;-82
2022/07/30 12:04:53;;;;;;;16.95;13.15;;;640.30;2432.00;;;;;;5112287;28;20065;-83
2022/07/30 12:07:25;;;;;;;17.48;10.93;;;640.20;2432.00;;;;;;5112459;28;20055;-85
2022/07/30 12:09:51;;;;;;;12.60;11.27;;;640.40;2432.00;;;;;;5112598;28;20090;-83
2022/07/30 12:12:24;;;;;;;10.98;9.77;;;640.70;2432.00;;;;;;5112292;28;20023;-86
2022/07/30 12:14:50;;;;;;;13.10;10.57;;;665.60;2432.00;;;;;;5112726;28;20036;-88
2022/07/30 12:17:16;;;;;;;12.85;9.57;;;640.70;2432.00;;;;;;5130426;28;20031;-86
2022/07/30 12:19:46;;;;;;;19.38;14.55;;;640.70;2432.00;;;;;;5130559;28;20023;-87
2022/07/30 12:22:12;;;;;;;13.60;10.35;;;640.60;2432.00;;;;;;5130520;28;20088;-84
2022/07/30 12:24:38;;;;;;;12.68;11.48;;;640.80;2432.00;;;;;;5129980;28;20039;-83
2022/07/30 12:27:05;;;;;;;12.85;9.82;;;666.20;2432.00;;;;;;5130274;28;20028;-83
2022/07/30 12:29:35;;;;;;;14.30;11.35;;;666.50;2432.00;;;;;;5130385;28;20028;-84
2022/07/30 12:32:01;;;;;;;13.43;10.60;;;691.90;2432.00;;;;;;5130388;28;20110;-85